createdAt,value
2023-05-05T00:00:15.880Z,96.30
2023-05-05T00:02:49.810Z,96.50
2023-05-05T00:05:21.980Z,96.80
2023-05-05T00:07:55.360Z,96.70
2023-05-05T00:10:27.458Z,96.80
2023-05-05T00:12:59.585Z,97.00
2023-05-05T00:15:32.191Z,96.80
2023-05-05T00:18:05.130Z,97.20
2023-05-05T00:20:37.663Z,97.20
2023-05-05T00:23:10.151Z,97.60
2023-05-05T00:25:42.169Z,98.20
2023-05-05T00:28:14.412Z,97.60
2023-05-05T00:30:46.667Z,97.40
2023-05-05T00:33:18.902Z,97.30
2023-05-05T00:35:51.694Z,97.50
2023-05-05T00:38:23.930Z,97.60
2023-05-05T00:40:56.041Z,97.60
2023-05-05T00:43:29.160Z,97.90
2023-05-05T00:46:19.627Z,98.10
2023-05-05T00:48:54.961Z,98.20
2023-05-05T00:51:29.067Z,97.90
2023-05-05T00:54:02.370Z,98.30
2023-05-05T00:56:35.258Z,98.80
2023-05-05T00:59:07.499Z,98.30
2023-05-05T01:01:39.905Z,99.20
2023-05-05T01:04:11.982Z,98.70
2023-05-05T01:07:09.144Z,99.80
2023-05-05T01:10:19.860Z,99.40
2023-05-05T01:13:11.491Z,99.80
2023-05-05T01:16:18.757Z,99.50
2023-05-05T01:19:20.541Z,99.60
2023-05-05T01:22:15.077Z,99.90
2023-05-05T01:25:10.199Z,99.90
2023-05-05T01:28:16.994Z,99.90
2023-05-05T01:31:43.998Z,99.80
2023-05-05T01:34:28.934Z,99.90
2023-05-05T01:37:19.123Z,99.90
2023-05-05T01:40:01.927Z,99.90
2023-05-05T01:42:41.114Z,99.90
2023-05-05T01:45:15.979Z,99.90
2023-05-05T01:47:53.713Z,99.90
2023-05-05T01:50:29.355Z,99.90
2023-05-05T01:53:05.057Z,99.90
2023-05-05T01:55:39.708Z,99.90
2023-05-05T01:58:14.591Z,99.90
2023-05-05T02:00:48.926Z,99.90
2023-05-05T02:03:23.240Z,99.90
2023-05-05T02:05:58.374Z,99.90
2023-05-05T02:08:32.830Z,99.90
2023-05-05T02:11:09.891Z,99.90
2023-05-05T02:13:44.069Z,99.90
2023-05-05T02:16:18.641Z,99.90
2023-05-05T02:18:52.167Z,99.90
2023-05-05T02:21:25.010Z,99.90
2023-05-05T02:23:57.368Z,99.90
2023-05-05T02:26:32.933Z,99.90
2023-05-05T02:29:16.471Z,99.90
2023-05-05T02:31:55.296Z,99.90
2023-05-05T02:34:36.925Z,99.90
2023-05-05T02:37:15.750Z,99.90
2023-05-05T02:40:11.310Z,99.90
2023-05-05T02:42:46.939Z,99.90
2023-05-05T02:45:23.222Z,99.90
2023-05-05T02:47:56.266Z,99.90
2023-05-05T02:50:33.329Z,99.90
2023-05-05T02:53:05.650Z,99.90
2023-05-05T02:55:45.297Z,99.90
2023-05-05T02:58:31.336Z,99.90
2023-05-05T03:01:40.769Z,99.90
2023-05-05T03:04:31.947Z,99.90
2023-05-05T03:07:30.688Z,99.90
2023-05-05T03:10:14.962Z,99.90
2023-05-05T03:13:02.093Z,99.90
2023-05-05T03:15:45.834Z,99.90
2023-05-05T03:18:22.829Z,99.90
2023-05-05T03:20:56.482Z,99.90
2023-05-05T03:23:32.031Z,99.90
2023-05-05T03:26:04.750Z,99.90
2023-05-05T03:28:36.786Z,99.90
2023-05-05T03:31:09.093Z,99.90
2023-05-05T03:33:41.616Z,99.90
2023-05-05T03:36:14.001Z,99.90
2023-05-05T03:38:46.075Z,99.90
2023-05-05T03:41:18.121Z,99.90
2023-05-05T03:43:51.403Z,99.90
2023-05-05T03:46:23.515Z,99.90
2023-05-05T03:48:58.469Z,99.90
2023-05-05T03:51:31.245Z,99.90
2023-05-05T03:54:03.678Z,99.90
2023-05-05T03:56:35.920Z,99.90
2023-05-05T03:59:08.833Z,99.90
2023-05-05T04:01:41.560Z,99.90
2023-05-05T04:04:13.776Z,99.90
2023-05-05T04:06:45.979Z,99.90
2023-05-05T04:09:17.973Z,99.90
2023-05-05T04:11:50.216Z,99.90
2023-05-05T04:14:22.408Z,99.90
2023-05-05T04:16:54.508Z,99.90
2023-05-05T04:19:26.713Z,99.90
2023-05-05T04:21:59.362Z,99.90
2023-05-05T04:24:31.666Z,99.90
2023-05-05T04:27:03.862Z,99.90
2023-05-05T04:29:36.245Z,99.90
2023-05-05T04:32:08.335Z,99.90
2023-05-05T04:34:40.400Z,99.90
2023-05-05T04:37:13.768Z,99.90
2023-05-05T04:39:46.563Z,99.90
2023-05-05T04:42:18.931Z,99.90
2023-05-05T04:44:51.216Z,99.90
2023-05-05T04:47:23.355Z,99.90
2023-05-05T04:49:56.149Z,99.90
2023-05-05T04:52:28.201Z,99.90
2023-05-05T04:55:01.199Z,99.90
2023-05-05T04:57:33.385Z,99.90
2023-05-05T05:00:06.559Z,99.90
2023-05-05T05:02:39.541Z,99.90
2023-05-05T05:05:12.238Z,99.90
2023-05-05T05:07:44.400Z,99.90
2023-05-05T05:10:17.357Z,99.90
2023-05-05T05:12:49.536Z,99.90
2023-05-05T05:15:21.701Z,99.90
2023-05-05T05:17:54.065Z,99.90
2023-05-05T05:20:26.301Z,99.90
2023-05-05T05:23:04.385Z,99.90
2023-05-05T05:25:36.553Z,99.90
2023-05-05T05:28:10.778Z,99.90
2023-05-05T05:30:43.117Z,99.90
2023-05-05T05:33:15.249Z,99.90
2023-05-05T05:35:47.689Z,99.90
2023-05-05T05:38:19.891Z,99.90
2023-05-05T05:40:51.962Z,99.90
2023-05-05T05:43:25.278Z,99.90
2023-05-05T05:45:57.442Z,99.90
2023-05-05T05:48:29.683Z,99.90
2023-05-05T05:51:02.556Z,99.90
2023-05-05T05:53:34.726Z,99.90
2023-05-05T05:56:07.152Z,99.90
2023-05-05T05:58:40.566Z,99.90
2023-05-05T06:01:13.141Z,99.90
2023-05-05T06:03:45.697Z,99.90
2023-05-05T06:06:17.989Z,99.90
2023-05-05T06:08:50.204Z,99.90
2023-05-05T06:11:22.549Z,99.90
2023-05-05T06:13:54.571Z,99.90
2023-05-05T06:16:26.875Z,99.90
2023-05-05T06:18:59.130Z,99.90
2023-05-05T06:21:31.436Z,99.90
2023-05-05T06:24:03.621Z,99.90
2023-05-05T06:26:35.908Z,99.90
2023-05-05T06:29:09.151Z,99.90
2023-05-05T06:31:45.062Z,99.90
2023-05-05T06:34:18.771Z,99.90
2023-05-05T06:36:54.628Z,99.90
2023-05-05T06:39:27.101Z,99.90
2023-05-05T06:42:01.195Z,99.90
2023-05-05T06:44:36.743Z,99.90
2023-05-05T06:47:08.924Z,99.90
2023-05-05T06:49:40.996Z,99.90
2023-05-05T06:52:16.819Z,99.90
2023-05-05T06:54:49.188Z,99.90
2023-05-05T06:57:21.245Z,99.90
2023-05-05T06:59:54.664Z,99.90
2023-05-05T07:02:30.224Z,99.90
2023-05-05T07:05:02.645Z,99.90
2023-05-05T07:07:36.697Z,99.90
2023-05-05T07:10:12.196Z,99.90
2023-05-05T07:12:48.817Z,99.90
2023-05-05T07:15:27.567Z,99.90
2023-05-05T07:18:01.832Z,99.90
2023-05-05T07:20:37.095Z,99.90
2023-05-05T07:23:12.414Z,99.90
2023-05-05T07:25:47.962Z,99.90
2023-05-05T07:28:22.905Z,99.90
2023-05-05T07:30:56.170Z,99.90
2023-05-05T07:33:28.849Z,99.90
2023-05-05T07:36:01.045Z,99.90
2023-05-05T07:38:36.912Z,99.90
2023-05-05T07:41:11.688Z,99.90
2023-05-05T07:43:44.756Z,99.90
2023-05-05T07:46:18.245Z,99.90
2023-05-05T07:48:50.467Z,99.90
2023-05-05T07:51:22.622Z,99.90
2023-05-05T07:53:55.995Z,99.90
2023-05-05T07:56:28.564Z,99.90
2023-05-05T07:59:01.020Z,99.90
2023-05-05T08:01:33.317Z,99.90
2023-05-05T08:04:06.455Z,99.90
2023-05-05T08:06:39.068Z,99.90
2023-05-05T08:09:11.409Z,99.90
2023-05-05T08:11:43.715Z,99.90
2023-05-05T08:14:16.186Z,99.90
2023-05-05T08:16:48.625Z,99.90
2023-05-05T08:19:28.799Z,99.90
2023-05-05T08:22:02.099Z,99.90
2023-05-05T08:24:37.662Z,99.90
2023-05-05T08:27:14.231Z,99.90
2023-05-05T08:29:47.376Z,99.90
2023-05-05T08:32:20.143Z,99.90
2023-05-05T08:34:53.397Z,99.90
2023-05-05T08:37:27.802Z,99.90
2023-05-05T08:40:01.204Z,99.90
2023-05-05T08:42:43.762Z,99.90
2023-05-05T08:45:18.351Z,99.90
2023-05-05T08:47:51.409Z,99.90
2023-05-05T08:50:35.098Z,99.90
2023-05-05T08:53:39.072Z,99.90
2023-05-05T08:56:44.783Z,99.90
2023-05-05T08:59:21.147Z,99.90
2023-05-05T09:02:01.749Z,99.90
2023-05-05T09:04:37.040Z,99.90
2023-05-05T09:07:09.842Z,99.90
2023-05-05T09:09:43.222Z,99.90
2023-05-05T09:12:18.218Z,99.90
2023-05-05T09:14:51.959Z,99.90
2023-05-05T09:17:25.796Z,99.90
2023-05-05T09:20:04.526Z,99.90
2023-05-05T09:22:43.731Z,99.90
2023-05-05T09:25:18.627Z,99.90
2023-05-05T09:27:50.779Z,99.90
2023-05-05T09:30:27.096Z,99.90
2023-05-05T09:33:03.913Z,99.90
2023-05-05T09:35:53.609Z,99.90
2023-05-05T09:38:26.947Z,99.90
2023-05-05T09:41:00.600Z,99.90
2023-05-05T09:43:52.120Z,99.90
2023-05-05T09:46:24.822Z,99.90
2023-05-05T09:49:23.725Z,99.90
2023-05-05T09:51:57.922Z,99.90
2023-05-05T09:54:31.030Z,99.90
2023-05-05T09:57:07.325Z,99.90
2023-05-05T09:59:40.164Z,99.90
2023-05-05T10:02:34.275Z,99.90
2023-05-05T10:05:16.491Z,99.90
2023-05-05T10:07:49.749Z,99.90
2023-05-05T10:10:22.857Z,99.90
2023-05-05T10:12:58.585Z,99.90
2023-05-05T10:15:30.848Z,99.90
2023-05-05T10:18:07.493Z,99.90
2023-05-05T10:20:43.854Z,99.90
2023-05-05T10:23:20.634Z,99.90
2023-05-05T10:25:59.061Z,99.90
2023-05-05T10:28:44.811Z,99.90
2023-05-05T10:31:57.633Z,99.90
2023-05-05T10:34:41.215Z,99.90
2023-05-05T10:37:22.910Z,99.90
2023-05-05T10:39:57.534Z,99.90
2023-05-05T10:42:30.350Z,99.90
2023-05-05T10:45:03.210Z,99.90
2023-05-05T10:47:38.388Z,99.90
2023-05-05T10:50:33.341Z,99.90
2023-05-05T10:53:24.136Z,99.90
2023-05-05T10:56:10.571Z,99.90
2023-05-05T10:58:59.826Z,99.90
2023-05-05T11:01:35.442Z,99.90
2023-05-05T11:04:21.642Z,99.90
2023-05-05T11:07:12.713Z,99.90
2023-05-05T11:09:56.859Z,99.90
2023-05-05T11:12:32.847Z,99.90
2023-05-05T11:15:27.467Z,99.90
2023-05-05T11:18:07.417Z,99.90
2023-05-05T11:20:59.584Z,99.90
2023-05-05T11:23:39.876Z,99.90
2023-05-05T11:26:15.253Z,99.90
2023-05-05T11:28:59.539Z,99.90
2023-05-05T11:31:33.923Z,99.90
2023-05-05T11:34:28.434Z,99.90
2023-05-05T11:37:07.727Z,99.90
2023-05-05T11:39:53.874Z,99.90
2023-05-05T11:42:35.050Z,99.90
2023-05-05T11:45:27.727Z,99.90
2023-05-05T11:48:45.374Z,99.90
2023-05-05T11:51:19.119Z,99.90
2023-05-05T11:53:53.380Z,99.90
2023-05-05T11:56:26.045Z,99.90
2023-05-05T11:59:10.168Z,99.90
2023-05-05T12:01:42.636Z,99.90
2023-05-05T12:04:16.224Z,99.90
2023-05-05T12:06:51.790Z,99.90
2023-05-05T12:09:25.188Z,99.90
2023-05-05T12:12:01.184Z,99.90
2023-05-05T12:14:34.676Z,99.90
2023-05-05T12:17:11.038Z,99.90
2023-05-05T12:19:48.049Z,99.90
2023-05-05T12:22:24.750Z,99.90
2023-05-05T12:24:59.886Z,99.90
2023-05-05T12:27:35.496Z,99.90
2023-05-05T12:30:16.762Z,99.90
2023-05-05T12:32:56.815Z,99.90
2023-05-05T12:35:35.981Z,99.90
2023-05-05T12:38:08.841Z,99.90
2023-05-05T12:40:48.071Z,99.90
2023-05-05T12:43:35.851Z,99.90
2023-05-05T12:46:15.300Z,99.90
2023-05-05T12:49:01.531Z,99.90
2023-05-05T12:51:38.218Z,99.90
2023-05-05T12:54:25.117Z,99.90
2023-05-05T12:57:11.611Z,99.90
2023-05-05T12:59:44.198Z,99.90
2023-05-05T13:02:17.182Z,99.90
2023-05-05T13:04:52.720Z,99.90
2023-05-05T13:07:25.286Z,99.90
2023-05-05T13:10:09.208Z,99.90
2023-05-05T13:12:42.151Z,99.90
2023-05-05T13:15:14.460Z,99.90
2023-05-05T13:17:46.828Z,99.90
2023-05-05T13:20:19.293Z,99.90
2023-05-05T13:22:51.510Z,99.90
2023-05-05T13:25:23.781Z,99.90
2023-05-05T13:27:56.082Z,99.90
2023-05-05T13:30:28.286Z,99.90
2023-05-05T13:33:00.696Z,99.90
2023-05-05T13:35:33.553Z,99.90
2023-05-05T13:38:05.631Z,99.90
2023-05-05T13:40:37.725Z,99.90
2023-05-05T13:43:09.879Z,99.90
2023-05-05T13:45:42.106Z,99.90
2023-05-05T13:48:14.243Z,99.90
2023-05-05T13:50:47.252Z,99.90
2023-05-05T13:53:19.761Z,99.90
2023-05-05T13:55:52.185Z,99.90
2023-05-05T13:58:24.603Z,99.90
2023-05-05T14:00:56.981Z,99.90
2023-05-05T14:03:29.832Z,99.90
2023-05-05T14:06:02.127Z,99.90
2023-05-05T14:08:34.254Z,99.90
2023-05-05T14:11:06.455Z,99.90
2023-05-05T14:13:38.581Z,99.90
2023-05-05T14:16:10.768Z,99.90
2023-05-05T14:18:43.280Z,99.90
2023-05-05T14:21:15.341Z,99.90
2023-05-05T14:23:47.665Z,99.90
2023-05-05T14:26:19.623Z,99.90
2023-05-05T14:28:52.496Z,99.90
2023-05-05T14:31:24.808Z,99.90
2023-05-05T14:33:57.004Z,99.90
2023-05-05T14:36:29.145Z,99.90
2023-05-05T14:39:02.236Z,99.90
2023-05-05T14:41:34.383Z,99.90
2023-05-05T14:44:06.586Z,99.90
2023-05-05T14:46:38.892Z,99.90
2023-05-05T14:49:11.323Z,99.90
2023-05-05T14:51:43.538Z,99.90
2023-05-05T14:54:27.509Z,99.90
2023-05-05T14:57:00.699Z,99.90
2023-05-05T14:59:39.967Z,99.90
2023-05-05T15:02:17.936Z,99.90
2023-05-05T15:04:53.700Z,99.90
2023-05-05T15:07:28.682Z,99.90
2023-05-05T15:10:00.938Z,99.90
2023-05-05T15:12:33.348Z,99.90
2023-05-05T15:15:08.549Z,99.90
2023-05-05T15:17:42.022Z,99.90
2023-05-05T15:20:14.644Z,99.90
2023-05-05T15:22:48.459Z,99.90
2023-05-05T15:25:22.587Z,99.90
2023-05-05T15:27:55.064Z,99.90
2023-05-05T15:30:32.073Z,99.90
2023-05-05T15:33:12.288Z,99.90
2023-05-05T15:35:44.566Z,99.90
2023-05-05T15:38:19.472Z,99.90
2023-05-05T15:40:56.126Z,99.90
2023-05-05T15:43:32.337Z,99.90
2023-05-05T15:46:06.037Z,99.90
2023-05-05T15:48:38.372Z,99.90
2023-05-05T15:51:12.276Z,99.90
2023-05-05T15:53:44.511Z,99.90
2023-05-05T15:56:17.256Z,99.90
2023-05-05T15:58:49.886Z,99.90
2023-05-05T16:01:22.982Z,99.90
2023-05-05T16:03:55.384Z,99.90
2023-05-05T16:06:29.633Z,99.90
2023-05-05T16:09:05.371Z,99.90
2023-05-05T16:11:38.682Z,99.90
2023-05-05T16:14:12.210Z,99.90
2023-05-05T16:16:44.938Z,99.90
2023-05-05T16:19:18.560Z,99.90
2023-05-05T16:21:55.665Z,99.90
2023-05-05T16:24:29.301Z,99.90
2023-05-05T16:27:02.835Z,99.90
2023-05-05T16:29:36.655Z,99.90
2023-05-05T16:32:09.119Z,99.90
2023-05-05T16:34:48.946Z,99.90
2023-05-05T16:37:22.027Z,99.90
2023-05-05T16:39:54.676Z,99.90
2023-05-05T16:42:32.847Z,99.90
2023-05-05T16:45:07.716Z,99.90
2023-05-05T16:47:44.968Z,99.90
2023-05-05T16:50:19.781Z,99.90
2023-05-05T16:52:53.450Z,99.90
2023-05-05T16:55:26.127Z,99.90
2023-05-05T16:57:58.914Z,99.90
2023-05-05T17:00:31.640Z,99.90
2023-05-05T17:03:04.568Z,99.90
2023-05-05T17:05:37.105Z,99.90
2023-05-05T17:08:14.670Z,99.90
2023-05-05T17:10:47.434Z,99.90
2023-05-05T17:13:20.013Z,99.90
2023-05-05T17:15:53.935Z,99.90
2023-05-05T17:18:27.278Z,99.90
2023-05-05T17:20:59.884Z,99.90
2023-05-05T17:23:34.256Z,99.90
2023-05-05T17:26:06.762Z,99.90
2023-05-05T17:28:38.880Z,99.90
2023-05-05T17:31:11.505Z,99.90
2023-05-05T17:33:44.335Z,99.90
2023-05-05T17:36:18.564Z,99.90
2023-05-05T17:38:52.371Z,99.90
2023-05-05T17:41:27.950Z,99.90
2023-05-05T17:44:01.023Z,99.90
2023-05-05T17:46:35.635Z,99.90
2023-05-05T17:49:09.988Z,99.90
2023-05-05T17:51:43.434Z,99.90
2023-05-05T17:54:17.183Z,99.90
2023-05-05T17:56:49.716Z,99.90
2023-05-05T17:59:23.231Z,99.90
2023-05-05T18:01:56.177Z,99.90
2023-05-05T18:04:28.654Z,99.90
2023-05-05T18:07:02.229Z,99.90
2023-05-05T18:09:36.594Z,99.90
2023-05-05T18:12:10.664Z,99.90
2023-05-05T18:14:43.623Z,99.90
2023-05-05T18:17:17.510Z,99.90
2023-05-05T18:19:50.943Z,99.90
2023-05-05T18:22:24.389Z,99.90
2023-05-05T18:24:59.574Z,99.90
2023-05-05T18:27:36.120Z,99.90
2023-05-05T18:30:10.813Z,99.90
2023-05-05T18:32:44.399Z,99.90
2023-05-05T18:35:17.514Z,99.90
2023-05-05T18:37:50.432Z,99.90
2023-05-05T18:40:23.533Z,99.90
2023-05-05T18:42:55.971Z,99.90
2023-05-05T18:45:28.510Z,99.90
2023-05-05T18:48:01.557Z,99.90
2023-05-05T18:50:34.609Z,99.90
2023-05-05T18:53:08.878Z,99.90
2023-05-05T18:55:47.345Z,99.90
2023-05-05T18:58:21.123Z,99.90
2023-05-05T19:00:54.720Z,99.90
2023-05-05T19:03:27.924Z,99.90
2023-05-05T19:06:06.024Z,99.90
2023-05-05T19:08:40.287Z,99.90
2023-05-05T19:11:15.596Z,99.90
2023-05-05T19:13:51.791Z,99.90
2023-05-05T19:16:26.227Z,99.90
2023-05-05T19:19:01.042Z,99.90
2023-05-05T19:21:34.575Z,99.90
2023-05-05T19:24:10.953Z,99.90
2023-05-05T19:26:47.083Z,99.90
2023-05-05T19:29:20.584Z,99.90
2023-05-05T19:31:53.479Z,99.90
2023-05-05T19:34:26.498Z,99.90
2023-05-05T19:37:00.162Z,99.90
2023-05-05T19:39:33.578Z,99.90
2023-05-05T19:42:07.221Z,99.90
2023-05-05T19:44:41.772Z,99.90
2023-05-05T19:47:15.605Z,99.90
2023-05-05T19:49:49.477Z,99.90
2023-05-05T19:52:23.053Z,99.90
2023-05-05T19:54:56.260Z,99.90
2023-05-05T19:57:29.611Z,99.90
2023-05-05T20:00:02.755Z,99.90
2023-05-05T20:02:37.275Z,99.90
2023-05-05T20:05:14.070Z,99.90
2023-05-05T20:07:50.595Z,99.90
2023-05-05T20:10:24.422Z,99.90
2023-05-05T20:12:57.896Z,99.90
2023-05-05T20:15:31.311Z,99.90
2023-05-05T20:18:05.552Z,99.90
2023-05-05T20:20:37.891Z,99.90
2023-05-05T20:23:10.268Z,99.90
2023-05-05T20:25:43.004Z,99.90
2023-05-05T20:28:16.124Z,99.90
2023-05-05T20:30:49.034Z,99.90
2023-05-05T20:33:21.680Z,99.90
2023-05-05T20:35:54.588Z,99.90
2023-05-05T20:38:27.770Z,99.90
2023-05-05T20:41:00.592Z,99.90
2023-05-05T20:43:32.993Z,99.90
2023-05-05T20:46:05.616Z,99.90
2023-05-05T20:48:42.943Z,99.90
2023-05-05T20:51:15.596Z,99.90
2023-05-05T20:53:48.906Z,99.90
2023-05-05T20:56:22.004Z,99.90
2023-05-05T20:58:56.629Z,99.90
2023-05-05T21:01:29.236Z,99.90
2023-05-05T21:04:01.902Z,99.90
2023-05-05T21:06:34.337Z,99.90
2023-05-05T21:09:06.886Z,99.90
2023-05-05T21:11:39.038Z,99.90
2023-05-05T21:14:11.563Z,99.90
2023-05-05T21:16:43.877Z,99.90
2023-05-05T21:19:16.488Z,99.90
2023-05-05T21:21:48.733Z,99.90
2023-05-05T21:24:21.195Z,99.90
2023-05-05T21:26:53.474Z,99.90
2023-05-05T21:29:27.356Z,99.90
2023-05-05T21:31:59.901Z,99.90
2023-05-05T21:34:32.152Z,99.90
2023-05-05T21:37:05.066Z,99.90
2023-05-05T21:39:37.391Z,99.90
2023-05-05T21:42:09.515Z,99.90
2023-05-05T21:44:41.679Z,99.90
2023-05-05T21:47:13.867Z,99.90
2023-05-05T21:49:46.142Z,99.90
2023-05-05T21:52:18.326Z,99.90
2023-05-05T21:54:50.641Z,99.90
2023-05-05T21:57:23.055Z,99.90
2023-05-05T21:59:55.527Z,99.90
2023-05-05T22:02:27.883Z,99.90
2023-05-05T22:05:00.296Z,99.90
2023-05-05T22:07:33.031Z,99.90
2023-05-05T22:10:06.535Z,99.90
2023-05-05T22:12:39.299Z,99.90
2023-05-05T22:15:12.240Z,99.90
2023-05-05T22:17:44.918Z,99.90
2023-05-05T22:20:18.252Z,99.90
2023-05-05T22:22:50.454Z,99.90
2023-05-05T22:25:22.650Z,99.90
2023-05-05T22:27:55.886Z,99.90
2023-05-05T22:30:28.164Z,99.90
2023-05-05T22:33:00.457Z,99.90
2023-05-05T22:35:32.967Z,99.90
2023-05-05T22:38:06.020Z,99.90
2023-05-05T22:40:38.358Z,99.90
2023-05-05T22:43:10.551Z,99.90
2023-05-05T22:45:43.652Z,99.90
2023-05-05T22:48:16.157Z,99.90
2023-05-05T22:50:48.172Z,99.90
2023-05-05T22:53:20.289Z,99.90
2023-05-05T22:55:52.382Z,99.90
2023-05-05T22:58:24.482Z,99.90
2023-05-05T23:00:56.912Z,99.90
2023-05-05T23:03:29.022Z,99.90
2023-05-05T23:06:01.358Z,99.90
2023-05-05T23:08:33.562Z,99.90
2023-05-05T23:11:05.786Z,99.90
2023-05-05T23:13:37.999Z,99.90
2023-05-05T23:16:10.683Z,99.90
2023-05-05T23:18:43.007Z,99.90
2023-05-05T23:21:15.227Z,99.90
2023-05-05T23:23:48.589Z,99.90
2023-05-05T23:26:21.061Z,99.90
2023-05-05T23:28:53.146Z,99.90
2023-05-05T23:31:25.173Z,99.90
2023-05-05T23:33:57.299Z,99.90
2023-05-05T23:36:29.338Z,99.90
2023-05-05T23:39:01.353Z,99.90
2023-05-05T23:41:33.365Z,99.90
2023-05-05T23:44:05.617Z,99.90
2023-05-05T23:46:38.026Z,99.90
2023-05-05T23:49:10.065Z,99.90
2023-05-05T23:51:42.087Z,99.90
2023-05-05T23:54:14.124Z,99.90
2023-05-05T23:56:47.745Z,99.90
2023-05-05T23:59:20.013Z,99.90
